createdAt,value
2023-05-06T00:02:21.935Z,1.65
2023-05-06T00:04:49.992Z,1.42
2023-05-06T00:07:18.181Z,2.22
2023-05-06T00:09:47.460Z,1.70
2023-05-06T00:12:15.373Z,1.67
2023-05-06T00:14:43.239Z,1.67
2023-05-06T00:17:11.212Z,1.80
2023-05-06T00:19:39.728Z,1.60
2023-05-06T00:22:07.665Z,1.13
2023-05-06T00:24:35.486Z,1.55
2023-05-06T00:27:04.673Z,1.38
2023-05-06T00:29:32.540Z,1.60
2023-05-06T00:32:00.389Z,2.03
2023-05-06T00:34:28.330Z,1.17
2023-05-06T00:36:56.290Z,1.70
2023-05-06T00:39:23.957Z,1.40
2023-05-06T00:41:52.036Z,1.45
2023-05-06T00:44:21.180Z,1.30
2023-05-06T00:46:49.090Z,1.48
2023-05-06T00:49:17.049Z,2.08
2023-05-06T00:51:45.488Z,1.60
2023-05-06T00:54:13.426Z,2.05
2023-05-06T00:56:42.547Z,1.80
2023-05-06T00:59:10.350Z,1.83
2023-05-06T01:01:39.791Z,1.92
2023-05-06T01:04:08.839Z,1.75
2023-05-06T01:06:38.998Z,1.95
2023-05-06T01:09:11.370Z,2.20
2023-05-06T01:11:42.277Z,1.80
2023-05-06T01:14:15.922Z,2.75
2023-05-06T01:16:46.508Z,1.83
2023-05-06T01:19:19.142Z,2.00
2023-05-06T01:21:47.973Z,2.50
2023-05-06T01:24:17.227Z,2.05
2023-05-06T01:26:44.901Z,2.42
2023-05-06T01:29:12.867Z,2.28
2023-05-06T01:31:45.195Z,2.20
2023-05-06T01:34:16.360Z,2.15
2023-05-06T01:36:47.040Z,2.05
2023-05-06T01:39:18.482Z,2.28
2023-05-06T01:41:48.388Z,2.20
2023-05-06T01:44:16.683Z,2.17
2023-05-06T01:46:46.409Z,2.22
2023-05-06T01:49:16.022Z,2.63
2023-05-06T01:51:48.258Z,2.75
2023-05-06T01:54:17.547Z,2.33
2023-05-06T01:56:46.555Z,2.00
2023-05-06T01:59:15.877Z,2.22
2023-05-06T02:01:43.722Z,2.42
2023-05-06T02:04:11.607Z,2.42
2023-05-06T02:06:40.166Z,2.20
2023-05-06T02:09:08.034Z,1.83
2023-05-06T02:11:42.145Z,2.33
2023-05-06T02:14:10.008Z,2.28
2023-05-06T02:16:38.033Z,2.40
2023-05-06T02:19:06.351Z,2.97
2023-05-06T02:24:01.985Z,2.28
2023-05-06T02:26:29.803Z,2.35
2023-05-06T02:28:59.826Z,2.20
2023-05-06T02:31:27.661Z,1.95
2023-05-06T02:33:55.665Z,1.92
2023-05-06T02:36:23.548Z,2.40
2023-05-06T02:38:51.276Z,2.38
2023-05-06T02:41:19.097Z,2.03
2023-05-06T02:43:47.096Z,2.55
2023-05-06T02:46:16.414Z,2.90
2023-05-06T02:48:44.368Z,2.15
2023-05-06T02:51:12.108Z,1.70
2023-05-06T02:53:39.892Z,2.28
2023-05-06T02:56:07.898Z,2.30
2023-05-06T02:58:35.758Z,2.38
2023-05-06T03:01:03.670Z,2.15
2023-05-06T03:03:33.006Z,2.53
2023-05-06T03:06:01.011Z,2.33
2023-05-06T03:08:28.919Z,2.72
2023-05-06T03:10:57.028Z,2.55
2023-05-06T03:13:25.100Z,2.03
2023-05-06T03:15:54.189Z,2.45
2023-05-06T03:18:22.784Z,2.17
2023-05-06T03:20:52.764Z,2.85
2023-05-06T03:23:21.152Z,2.13
2023-05-06T03:25:48.929Z,2.20
2023-05-06T03:28:18.171Z,2.65
2023-05-06T03:30:47.869Z,2.22
2023-05-06T03:33:16.266Z,2.95
2023-05-06T03:35:44.079Z,2.53
2023-05-06T03:38:13.270Z,2.40
2023-05-06T03:40:51.210Z,2.60
2023-05-06T03:43:19.142Z,2.70
2023-05-06T03:45:50.313Z,2.55
2023-05-06T03:48:18.421Z,2.17
2023-05-06T03:50:46.314Z,2.35
2023-05-06T03:53:16.535Z,3.13
2023-05-06T03:55:46.321Z,2.90
2023-05-06T03:58:14.730Z,2.30
2023-05-06T04:00:45.629Z,1.95
2023-05-06T04:03:13.914Z,2.20
2023-05-06T04:05:46.542Z,2.95
2023-05-06T04:08:18.577Z,2.45
2023-05-06T04:10:47.099Z,2.47
2023-05-06T04:13:21.673Z,3.05
2023-05-06T04:15:50.238Z,2.35
2023-05-06T04:18:22.363Z,2.50
2023-05-06T04:21:00.083Z,2.63
2023-05-06T04:23:30.624Z,2.58
2023-05-06T04:25:59.843Z,2.78
2023-05-06T04:28:30.318Z,2.30
2023-05-06T04:30:58.188Z,2.38
2023-05-06T04:33:34.705Z,2.47
2023-05-06T04:36:05.697Z,2.38
2023-05-06T04:38:37.422Z,2.25
2023-05-06T04:41:06.492Z,2.88
2023-05-06T04:43:34.376Z,2.55
2023-05-06T04:46:10.665Z,2.17
2023-05-06T04:48:41.139Z,2.28
2023-05-06T04:51:11.130Z,2.83
2023-05-06T04:53:40.813Z,2.33
2023-05-06T04:56:09.021Z,2.75
2023-05-06T04:58:37.532Z,2.70
2023-05-06T05:01:06.264Z,2.65
2023-05-06T05:03:34.241Z,2.55
2023-05-06T05:06:03.751Z,3.22
2023-05-06T05:08:32.195Z,2.60
2023-05-06T05:11:01.547Z,2.63
2023-05-06T05:13:31.598Z,2.88
2023-05-06T05:16:00.987Z,3.38
2023-05-06T05:18:31.741Z,2.97
2023-05-06T05:21:05.791Z,2.88
2023-05-06T05:23:35.723Z,2.75
2023-05-06T05:26:04.931Z,2.75
2023-05-06T05:28:33.340Z,2.75
2023-05-06T05:31:04.443Z,3.20
2023-05-06T05:33:35.280Z,2.40
2023-05-06T05:36:05.908Z,2.83
2023-05-06T05:38:33.899Z,3.22
2023-05-06T05:41:01.973Z,3.08
2023-05-06T05:46:01.348Z,2.67
2023-05-06T05:48:32.746Z,2.47
2023-05-06T05:51:02.953Z,2.40
2023-05-06T05:53:31.353Z,3.03
2023-05-06T05:55:59.568Z,2.70
2023-05-06T05:58:27.897Z,2.72
2023-05-06T06:00:58.730Z,3.10
2023-05-06T06:03:28.314Z,2.83
2023-05-06T06:05:56.416Z,3.22
2023-05-06T06:08:26.471Z,3.10
2023-05-06T06:10:54.635Z,3.90
2023-05-06T06:13:28.763Z,3.35
2023-05-06T06:15:57.303Z,3.22
2023-05-06T06:18:25.307Z,3.03
2023-05-06T06:20:54.780Z,2.80
2023-05-06T06:23:22.860Z,4.25
2023-05-06T06:25:50.803Z,2.83
2023-05-06T06:28:18.686Z,3.20
2023-05-06T06:30:46.992Z,3.47
2023-05-06T06:33:14.793Z,2.78
2023-05-06T06:35:42.694Z,2.95
2023-05-06T06:38:11.935Z,3.15
2023-05-06T06:40:39.828Z,2.95
2023-05-06T06:43:07.655Z,3.53
2023-05-06T06:46:02.280Z,3.38
2023-05-06T06:48:30.388Z,3.45
2023-05-06T06:50:58.200Z,2.50
2023-05-06T06:53:27.526Z,2.92
2023-05-06T06:55:55.233Z,2.88
2023-05-06T06:58:22.978Z,2.60
2023-05-06T07:00:50.920Z,3.70
2023-05-06T07:03:19.819Z,2.83
2023-05-06T07:05:47.665Z,3.13
2023-05-06T07:08:17.067Z,3.00
2023-05-06T07:10:46.402Z,2.80
2023-05-06T07:13:14.500Z,3.20
2023-05-06T07:15:42.278Z,3.13
2023-05-06T07:18:10.566Z,2.70
2023-05-06T07:20:38.285Z,2.70
2023-05-06T07:23:06.392Z,3.88
2023-05-06T07:25:35.316Z,3.33
2023-05-06T07:28:05.074Z,3.17
2023-05-06T07:30:32.915Z,3.17
2023-05-06T07:33:01.043Z,3.05
2023-05-06T07:35:28.969Z,3.00
2023-05-06T07:37:56.913Z,3.00
2023-05-06T07:40:24.918Z,2.58
2023-05-06T07:42:52.703Z,2.40
2023-05-06T07:45:23.555Z,2.53
2023-05-06T07:47:51.639Z,2.45
2023-05-06T07:52:47.093Z,3.20
2023-05-06T07:55:15.100Z,2.78
2023-05-06T07:57:42.961Z,2.00
2023-05-06T08:00:11.691Z,2.40
2023-05-06T08:02:47.502Z,2.20
2023-05-06T08:05:15.708Z,2.83
2023-05-06T08:10:11.439Z,1.95
2023-05-06T08:12:39.202Z,2.50
2023-05-06T08:15:07.801Z,2.83
2023-05-06T08:17:35.836Z,2.10
2023-05-06T08:20:05.282Z,2.97
2023-05-06T08:22:33.161Z,3.08
2023-05-06T08:25:01.659Z,2.13
2023-05-06T08:27:29.545Z,2.92
2023-05-06T08:32:25.507Z,2.58
2023-05-06T08:34:53.591Z,2.13
2023-05-06T08:37:22.748Z,2.75
2023-05-06T08:39:50.610Z,2.65
2023-05-06T08:42:18.655Z,2.20
2023-05-06T08:44:47.163Z,2.75
2023-05-06T08:47:15.047Z,3.00
2023-05-06T08:49:42.961Z,2.70
2023-05-06T08:52:10.837Z,2.88
2023-05-06T08:54:40.264Z,3.10
2023-05-06T08:57:12.219Z,2.63
2023-05-06T08:59:41.243Z,2.65
2023-05-06T09:02:10.696Z,2.53
2023-05-06T09:04:38.610Z,2.47
2023-05-06T09:07:06.325Z,2.65
2023-05-06T09:09:34.474Z,2.03
2023-05-06T09:14:31.662Z,2.33
2023-05-06T09:16:59.595Z,2.33
2023-05-06T09:19:27.665Z,2.50
2023-05-06T09:21:55.477Z,2.25
2023-05-06T09:24:23.498Z,2.30
2023-05-06T09:26:55.112Z,1.98
2023-05-06T09:29:22.916Z,2.30
2023-05-06T09:31:54.888Z,1.65
2023-05-06T09:34:23.387Z,1.83
2023-05-06T09:36:53.543Z,1.60
2023-05-06T09:39:26.227Z,1.40
2023-05-06T09:41:54.455Z,1.70
2023-05-06T09:44:22.946Z,1.52
2023-05-06T09:46:52.349Z,1.42
2023-05-06T09:49:20.249Z,1.42
2023-05-06T09:54:18.422Z,1.55
2023-05-06T09:56:46.954Z,1.38
2023-05-06T09:59:18.361Z,1.58
2023-05-06T10:01:47.098Z,1.90
2023-05-06T10:04:17.774Z,1.52
2023-05-06T10:06:47.670Z,1.75
2023-05-06T10:09:16.344Z,1.92
2023-05-06T10:11:45.230Z,1.70
2023-05-06T10:14:13.166Z,1.50
2023-05-06T10:19:09.375Z,1.60
2023-05-06T10:21:40.609Z,1.52
2023-05-06T10:24:11.808Z,1.38
2023-05-06T10:26:40.451Z,1.65
2023-05-06T10:29:10.305Z,2.00
2023-05-06T10:31:40.287Z,1.67
2023-05-06T10:34:08.843Z,1.33
2023-05-06T10:36:38.685Z,1.77
2023-05-06T10:39:07.531Z,1.60
2023-05-06T10:41:37.408Z,1.73
2023-05-06T10:44:06.194Z,1.92
2023-05-06T10:46:54.138Z,2.17
2023-05-06T10:49:21.889Z,1.73
2023-05-06T10:52:08.409Z,1.80
2023-05-06T10:54:47.915Z,1.65
2023-05-06T10:57:15.894Z,1.67
2023-05-06T10:59:46.153Z,1.80
2023-05-06T11:02:14.068Z,1.33
2023-05-06T11:07:11.042Z,1.65
2023-05-06T11:09:53.618Z,1.60
2023-05-06T11:12:23.138Z,1.27
2023-05-06T11:14:50.998Z,1.70
2023-05-06T11:17:31.535Z,1.30
2023-05-06T11:20:18.095Z,1.23
2023-05-06T11:22:46.098Z,1.00
2023-05-06T11:25:13.816Z,1.15
2023-05-06T11:30:16.129Z,0.90
2023-05-06T11:32:44.875Z,1.45
2023-05-06T11:35:12.986Z,1.35
2023-05-06T11:37:43.580Z,1.25
2023-05-06T11:40:17.614Z,1.42
2023-05-06T11:42:45.625Z,1.20
2023-05-06T11:45:13.547Z,1.40
2023-05-06T11:47:45.974Z,1.38
2023-05-06T11:50:13.856Z,1.30
2023-05-06T11:55:10.962Z,1.52
2023-05-06T11:57:44.773Z,1.15
2023-05-06T12:00:13.295Z,1.02
2023-05-06T12:02:41.874Z,1.05
2023-05-06T12:05:12.387Z,1.35
2023-05-06T12:07:42.926Z,1.42
2023-05-06T12:10:11.169Z,1.63
2023-05-06T12:12:39.221Z,1.05
2023-05-06T12:15:08.103Z,1.30
2023-05-06T12:17:35.918Z,0.82
2023-05-06T12:22:33.346Z,1.40
2023-05-06T12:25:13.428Z,1.50
2023-05-06T12:27:41.285Z,1.10
2023-05-06T12:32:37.322Z,1.23
2023-05-06T12:37:36.753Z,1.15
2023-05-06T12:40:05.065Z,1.30
2023-05-06T12:42:32.989Z,1.17
2023-05-06T12:47:28.509Z,2.20
2023-05-06T12:49:58.319Z,1.15
2023-05-06T12:52:27.711Z,1.42
2023-05-06T12:54:57.082Z,1.27
2023-05-06T12:57:24.991Z,2.00
2023-05-06T12:59:53.872Z,1.73
2023-05-06T13:02:21.687Z,1.52
2023-05-06T13:04:50.386Z,1.30
2023-05-06T13:07:18.285Z,1.42
2023-05-06T13:09:46.230Z,1.35
2023-05-06T13:12:15.596Z,1.55
2023-05-06T13:14:43.360Z,1.60
2023-05-06T13:17:11.402Z,1.67
2023-05-06T13:19:39.184Z,1.33
2023-05-06T13:22:07.008Z,1.17
2023-05-06T13:24:34.836Z,1.10
2023-05-06T13:27:02.680Z,1.00
2023-05-06T13:29:31.980Z,1.17
2023-05-06T13:32:00.781Z,1.30
2023-05-06T13:34:28.633Z,0.85
2023-05-06T13:39:25.051Z,1.00
2023-05-06T13:41:54.179Z,1.02
2023-05-06T13:44:22.468Z,1.17
2023-05-06T13:46:52.592Z,0.80
2023-05-06T13:49:20.603Z,1.00
2023-05-06T13:54:15.944Z,1.13
2023-05-06T13:56:43.762Z,1.20
2023-05-06T13:59:12.747Z,1.10
2023-05-06T14:01:41.588Z,1.00
2023-05-06T14:04:10.821Z,1.00
2023-05-06T14:06:38.907Z,0.75
2023-05-06T14:09:06.774Z,0.90
2023-05-06T14:11:34.523Z,1.30
2023-05-06T14:14:02.447Z,1.02
2023-05-06T14:16:30.390Z,0.80
2023-05-06T14:21:27.312Z,0.82
2023-05-06T14:23:55.576Z,0.90
2023-05-06T14:26:23.571Z,1.08
2023-05-06T14:31:19.061Z,1.00
2023-05-06T14:36:18.856Z,0.95
2023-05-06T14:38:48.019Z,1.00
2023-05-06T14:41:15.820Z,1.20
2023-05-06T14:43:43.695Z,1.10
2023-05-06T14:46:11.964Z,0.90
2023-05-06T14:48:39.917Z,1.00
2023-05-06T14:51:07.691Z,1.00
2023-05-06T14:53:35.673Z,0.88
2023-05-06T14:56:05.010Z,0.85
2023-05-06T14:58:32.809Z,1.30
2023-05-06T15:01:00.681Z,0.82
2023-05-06T15:03:28.543Z,1.10
2023-05-06T15:05:56.409Z,1.10
2023-05-06T15:10:51.921Z,0.82
2023-05-06T15:13:21.336Z,1.10
2023-05-06T15:15:49.192Z,0.70
2023-05-06T15:20:44.558Z,1.05
2023-05-06T15:23:12.475Z,1.20
2023-05-06T15:25:40.550Z,1.05
2023-05-06T15:28:08.606Z,1.20
2023-05-06T15:30:39.527Z,0.90
2023-05-06T15:33:07.378Z,0.95
2023-05-06T15:35:35.483Z,1.05
2023-05-06T15:38:03.889Z,0.88
2023-05-06T15:40:31.859Z,0.90
2023-05-06T15:42:59.867Z,0.73
2023-05-06T15:45:27.594Z,1.00
2023-05-06T15:47:56.962Z,0.77
2023-05-06T15:50:32.857Z,0.82
2023-05-06T15:53:02.126Z,0.50
2023-05-06T15:55:34.970Z,0.95
2023-05-06T15:58:09.318Z,1.20
2023-05-06T16:00:37.027Z,0.80
2023-05-06T16:03:09.851Z,0.65
2023-05-06T16:05:39.703Z,1.00
2023-05-06T16:08:07.563Z,0.68
2023-05-06T16:10:36.028Z,1.10
2023-05-06T16:13:04.159Z,0.98
2023-05-06T16:15:32.127Z,0.75
2023-05-06T16:17:59.873Z,0.88
2023-05-06T16:22:56.959Z,1.23
2023-05-06T16:25:25.134Z,1.50
2023-05-06T16:27:53.502Z,1.00
2023-05-06T16:30:21.412Z,1.67
2023-05-06T16:35:17.511Z,2.97
2023-05-06T16:37:45.635Z,2.10
2023-05-06T16:40:15.912Z,2.88
2023-05-06T16:42:43.794Z,2.42
2023-05-06T16:47:39.321Z,3.35
2023-05-06T16:50:07.968Z,2.88
2023-05-06T16:52:36.117Z,3.20
2023-05-06T16:55:04.129Z,3.55
2023-05-06T17:00:01.923Z,3.90
2023-05-06T17:02:29.911Z,3.95
2023-05-06T17:04:57.839Z,4.82
2023-05-06T17:09:53.809Z,4.22
2023-05-06T17:14:51.624Z,4.53
2023-05-06T17:17:24.855Z,4.53
2023-05-06T17:19:53.385Z,4.57
2023-05-06T17:22:22.196Z,5.00
2023-05-06T17:24:51.024Z,4.65
2023-05-06T17:27:19.246Z,5.18
2023-05-06T17:29:47.466Z,4.43
2023-05-06T17:32:15.342Z,4.80
2023-05-06T17:34:44.603Z,5.07
2023-05-06T17:37:12.597Z,4.65
2023-05-06T17:39:40.420Z,4.88
2023-05-06T17:42:08.566Z,4.88
2023-05-06T17:44:38.076Z,5.57
2023-05-06T17:47:05.953Z,5.28
2023-05-06T17:49:34.410Z,5.57
2023-05-06T17:52:03.556Z,5.15
2023-05-06T17:54:34.821Z,5.47
2023-05-06T17:57:03.567Z,5.95
2023-05-06T17:59:31.415Z,4.95
2023-05-06T18:02:00.431Z,5.68
2023-05-06T18:04:28.317Z,4.88
2023-05-06T18:06:57.115Z,5.20
2023-05-06T18:09:26.423Z,5.03
2023-05-06T18:11:54.292Z,4.93
2023-05-06T18:14:22.073Z,4.88
2023-05-06T18:16:49.957Z,4.25
2023-05-06T18:19:18.230Z,5.10
2023-05-06T18:21:46.357Z,5.80
2023-05-06T18:24:16.321Z,5.10
2023-05-06T18:26:46.421Z,5.47
2023-05-06T18:29:14.510Z,5.20
2023-05-06T18:34:10.208Z,5.13
2023-05-06T18:39:05.918Z,5.10
2023-05-06T18:41:33.685Z,5.72
2023-05-06T18:44:03.192Z,5.80
2023-05-06T18:46:31.143Z,5.78
2023-05-06T18:49:00.768Z,5.65
2023-05-06T18:51:28.864Z,5.50
2023-05-06T18:53:56.690Z,5.53
2023-05-06T18:56:24.542Z,5.10
2023-05-06T18:58:52.366Z,5.00
2023-05-06T19:01:22.185Z,5.10
2023-05-06T19:03:50.225Z,4.60
2023-05-06T19:08:45.630Z,4.82
2023-05-06T19:11:15.030Z,4.97
2023-05-06T19:13:42.968Z,5.25
2023-05-06T19:16:10.869Z,5.75
2023-05-06T19:18:40.210Z,6.20
2023-05-06T19:21:09.727Z,5.63
2023-05-06T19:23:37.632Z,5.82
2023-05-06T19:26:06.403Z,5.60
2023-05-06T19:28:34.599Z,5.85
2023-05-06T19:31:02.742Z,5.05
2023-05-06T19:33:30.896Z,5.28
2023-05-06T19:36:00.269Z,5.47
2023-05-06T19:38:28.108Z,5.05
2023-05-06T19:40:56.329Z,5.35
2023-05-06T19:43:24.583Z,4.88
2023-05-06T19:45:52.612Z,5.75
2023-05-06T19:50:48.551Z,5.10
2023-05-06T19:53:17.763Z,5.35
2023-05-06T19:55:45.646Z,5.18
2023-05-06T19:58:14.225Z,5.30
2023-05-06T20:00:42.157Z,5.05
2023-05-06T20:03:10.522Z,5.70
2023-05-06T20:05:38.568Z,6.03
2023-05-06T20:08:10.936Z,6.35
2023-05-06T20:10:40.348Z,6.15
2023-05-06T20:13:08.901Z,6.00
2023-05-06T20:15:36.974Z,5.55
2023-05-06T20:18:04.924Z,6.10
2023-05-06T20:23:02.948Z,5.63
2023-05-06T20:25:31.170Z,5.05
2023-05-06T20:28:00.690Z,5.93
2023-05-06T20:30:28.607Z,5.38
2023-05-06T20:32:56.672Z,5.10
2023-05-06T20:35:24.652Z,6.50
2023-05-06T20:37:54.509Z,6.32
2023-05-06T20:40:22.464Z,5.55
2023-05-06T20:42:50.234Z,6.40
2023-05-06T20:45:19.459Z,6.13
2023-05-06T20:47:47.365Z,6.22
2023-05-06T20:50:17.307Z,5.85
2023-05-06T20:52:46.038Z,5.68
2023-05-06T20:55:15.206Z,6.95
2023-05-06T20:57:43.429Z,5.72
2023-05-06T21:00:12.293Z,6.45
2023-05-06T21:02:42.297Z,6.78
2023-05-06T21:05:10.628Z,6.25
2023-05-06T21:07:38.934Z,6.45
2023-05-06T21:10:07.297Z,6.38
2023-05-06T21:12:35.084Z,6.22
2023-05-06T21:15:03.204Z,6.35
2023-05-06T21:20:00.052Z,5.88
2023-05-06T21:22:27.851Z,6.85
2023-05-06T21:24:55.952Z,6.53
2023-05-06T21:27:23.806Z,7.10
2023-05-06T21:29:51.648Z,6.40
2023-05-06T21:32:19.427Z,7.32
2023-05-06T21:34:47.309Z,5.80
2023-05-06T21:37:16.530Z,6.55
2023-05-06T21:39:44.373Z,6.95
2023-05-06T21:42:12.257Z,7.38
2023-05-06T21:44:40.085Z,7.03
2023-05-06T21:47:07.928Z,7.18
2023-05-06T21:49:35.887Z,7.28
2023-05-06T21:52:03.608Z,7.80
2023-05-06T21:54:32.846Z,7.03
2023-05-06T21:57:01.001Z,7.82
2023-05-06T21:59:30.129Z,7.97
2023-05-06T22:01:58.028Z,8.00
2023-05-06T22:04:26.427Z,8.05
2023-05-06T22:06:54.225Z,7.40
2023-05-06T22:09:23.408Z,8.13
2023-05-06T22:11:52.471Z,7.15
2023-05-06T22:14:24.318Z,7.25
2023-05-06T22:16:55.112Z,8.32
2023-05-06T22:19:22.979Z,7.20
2023-05-06T22:21:50.656Z,7.45
2023-05-06T22:24:18.513Z,7.40
2023-05-06T22:26:46.457Z,7.95
2023-05-06T22:29:15.555Z,7.60
2023-05-06T22:31:43.688Z,7.30
2023-05-06T22:36:39.160Z,7.03
2023-05-06T22:39:06.948Z,7.50
2023-05-06T22:41:34.928Z,6.75
2023-05-06T22:44:02.802Z,7.43
2023-05-06T22:46:32.155Z,7.63
2023-05-06T22:49:00.214Z,8.32
2023-05-06T22:51:28.021Z,7.65
2023-05-06T22:53:55.689Z,9.13
2023-05-06T22:56:23.428Z,7.90
2023-05-06T22:58:51.317Z,8.43
2023-05-06T23:01:19.270Z,7.55
2023-05-06T23:03:48.420Z,8.52
2023-05-06T23:06:16.387Z,8.60
2023-05-06T23:08:44.238Z,7.75
2023-05-06T23:11:12.138Z,8.07
2023-05-06T23:13:40.037Z,8.13
2023-05-06T23:16:10.214Z,8.18
2023-05-06T23:18:38.072Z,8.60
2023-05-06T23:21:07.527Z,8.57
2023-05-06T23:23:35.430Z,9.27
2023-05-06T23:26:03.356Z,9.45
2023-05-06T23:28:31.205Z,8.73
2023-05-06T23:30:59.186Z,9.15
2023-05-06T23:33:27.072Z,8.65
2023-05-06T23:35:54.942Z,8.35
2023-05-06T23:38:24.162Z,8.77
2023-05-06T23:40:51.975Z,8.82
2023-05-06T23:43:19.810Z,9.15
2023-05-06T23:45:47.521Z,9.23
2023-05-06T23:48:15.303Z,8.73
2023-05-06T23:50:43.097Z,9.05
2023-05-06T23:53:11.148Z,9.75
2023-05-06T23:58:08.033Z,8.73
